sensor_id;sensor_type;location;lat;lon;timestamp;pressure;altitude;pressure_sealevel;temperature;humidity
37304;BME280;23188;51.188;16.374;2023-04-30T00:03:14;100444.19;;;11.03;100.00
37304;BME280;23188;51.188;16.374;2023-04-30T00:07:16;100442.59;;;11.08;100.00
37304;BME280;23188;51.188;16.374;2023-04-30T00:11:18;100444.90;;;11.08;100.00
37304;BME280;23188;51.188;16.374;2023-04-30T00:15:22;100440.70;;;11.05;100.00
37304;BME280;23188;51.188;16.374;2023-04-30T00:19:24;100441.97;;;11.07;100.00
37304;BME280;23188;51.188;16.374;2023-04-30T00:23:27;100445.56;;;11.04;100.00
37304;BME280;23188;51.188;16.374;2023-04-30T00:27:30;100448.00;;;11.07;100.00
37304;BME280;23188;51.188;16.374;2023-04-30T00:31:33;100449.40;;;11.00;100.00
37304;BME280;23188;51.188;16.374;2023-04-30T00:35:37;100453.45;;;10.96;100.00
37304;BME280;23188;51.188;16.374;2023-04-30T00:39:39;100461.06;;;10.96;100.00
37304;BME280;23188;51.188;16.374;2023-04-30T00:43:41;100463.07;;;10.95;100.00
37304;BME280;23188;51.188;16.374;2023-04-30T00:47:43;100465.61;;;10.93;100.00
37304;BME280;23188;51.188;16.374;2023-04-30T00:51:45;100470.85;;;10.89;100.00
37304;BME280;23188;51.188;16.374;2023-04-30T00:55:47;100473.59;;;10.88;100.00
37304;BME280;23188;51.188;16.374;2023-04-30T00:59:49;100475.98;;;10.83;100.00
37304;BME280;23188;51.188;16.374;2023-04-30T01:03:52;100482.27;;;10.82;100.00
37304;BME280;23188;51.188;16.374;2023-04-30T01:07:55;100482.55;;;10.78;100.00
37304;BME280;23188;51.188;16.374;2023-04-30T01:12:09;100484.29;;;10.77;100.00
37304;BME280;23188;51.188;16.374;2023-04-30T01:16:22;100489.73;;;10.68;100.00
37304;BME280;23188;51.188;16.374;2023-04-30T01:20:28;100490.48;;;10.61;100.00
37304;BME280;23188;51.188;16.374;2023-04-30T01:29:13;100495.23;;;10.40;100.00
37304;BME280;23188;51.188;16.374;2023-04-30T01:33:17;100497.55;;;10.38;100.00
37304;BME280;23188;51.188;16.374;2023-04-30T01:37:42;100501.56;;;10.17;100.00
37304;BME280;23188;51.188;16.374;2023-04-30T01:41:53;100499.91;;;9.93;100.00
37304;BME280;23188;51.188;16.374;2023-04-30T01:50:41;100498.23;;;9.82;100.00
37304;BME280;23188;51.188;16.374;2023-04-30T01:54:50;100503.76;;;9.72;100.00
37304;BME280;23188;51.188;16.374;2023-04-30T01:58:53;100506.44;;;9.64;100.00
37304;BME280;23188;51.188;16.374;2023-04-30T02:02:57;100506.92;;;9.67;100.00
37304;BME280;23188;51.188;16.374;2023-04-30T02:07:02;100512.52;;;9.66;100.00
37304;BME280;23188;51.188;16.374;2023-04-30T02:11:04;100520.23;;;9.40;100.00
37304;BME280;23188;51.188;16.374;2023-04-30T02:15:09;100526.55;;;9.24;100.00
37304;BME280;23188;51.188;16.374;2023-04-30T02:19:11;100532.52;;;9.24;100.00
37304;BME280;23188;51.188;16.374;2023-04-30T02:23:14;100531.90;;;9.28;100.00
37304;BME280;23188;51.188;16.374;2023-04-30T02:27:18;100537.67;;;9.21;100.00
37304;BME280;23188;51.188;16.374;2023-04-30T02:31:23;100539.25;;;9.12;100.00
37304;BME280;23188;51.188;16.374;2023-04-30T02:35:26;100545.88;;;8.96;100.00
37304;BME280;23188;51.188;16.374;2023-04-30T02:39:28;100548.09;;;8.92;100.00
37304;BME280;23188;51.188;16.374;2023-04-30T02:43:33;100546.92;;;8.93;100.00
37304;BME280;23188;51.188;16.374;2023-04-30T02:47:35;100550.94;;;8.84;100.00
37304;BME280;23188;51.188;16.374;2023-04-30T02:51:38;100558.91;;;8.83;100.00
37304;BME280;23188;51.188;16.374;2023-04-30T02:55:41;100566.37;;;8.81;100.00
37304;BME280;23188;51.188;16.374;2023-04-30T02:59:42;100575.31;;;8.66;100.00
37304;BME280;23188;51.188;16.374;2023-04-30T03:03:47;100579.13;;;8.60;100.00
37304;BME280;23188;51.188;16.374;2023-04-30T03:07:49;100581.21;;;8.65;100.00
37304;BME280;23188;51.188;16.374;2023-04-30T03:11:52;100586.79;;;8.72;100.00
37304;BME280;23188;51.188;16.374;2023-04-30T03:16:01;100587.66;;;8.72;100.00
37304;BME280;23188;51.188;16.374;2023-04-30T03:20:06;100591.63;;;8.76;100.00
37304;BME280;23188;51.188;16.374;2023-04-30T03:24:09;100593.08;;;8.80;100.00
37304;BME280;23188;51.188;16.374;2023-04-30T03:28:12;100598.42;;;8.82;100.00
37304;BME280;23188;51.188;16.374;2023-04-30T03:32:22;100603.28;;;8.81;100.00
37304;BME280;23188;51.188;16.374;2023-04-30T03:36:25;100609.72;;;8.75;100.00
37304;BME280;23188;51.188;16.374;2023-04-30T03:40:30;100617.37;;;8.77;100.00
37304;BME280;23188;51.188;16.374;2023-04-30T03:44:33;100621.06;;;8.80;100.00
37304;BME280;23188;51.188;16.374;2023-04-30T03:48:37;100623.79;;;8.81;100.00
37304;BME280;23188;51.188;16.374;2023-04-30T03:52:39;100627.20;;;8.83;100.00
37304;BME280;23188;51.188;16.374;2023-04-30T03:56:43;100631.73;;;8.87;100.00
37304;BME280;23188;51.188;16.374;2023-04-30T04:00:47;100638.80;;;8.92;100.00
37304;BME280;23188;51.188;16.374;2023-04-30T04:04:51;100644.66;;;9.00;100.00
37304;BME280;23188;51.188;16.374;2023-04-30T04:08:56;100649.02;;;9.36;100.00
37304;BME280;23188;51.188;16.374;2023-04-30T04:13:00;100653.71;;;10.09;100.00
37304;BME280;23188;51.188;16.374;2023-04-30T04:17:05;100650.80;;;10.74;100.00
37304;BME280;23188;51.188;16.374;2023-04-30T04:21:07;100659.23;;;11.31;98.84
37304;BME280;23188;51.188;16.374;2023-04-30T04:25:09;100668.14;;;11.80;95.54
37304;BME280;23188;51.188;16.374;2023-04-30T04:29:12;100674.66;;;11.58;90.68
37304;BME280;23188;51.188;16.374;2023-04-30T04:33:14;100677.30;;;11.16;91.71
37304;BME280;23188;51.188;16.374;2023-04-30T04:37:17;100680.96;;;11.24;94.23
37304;BME280;23188;51.188;16.374;2023-04-30T04:41:19;100683.91;;;11.27;94.57
37304;BME280;23188;51.188;16.374;2023-04-30T04:45:21;100685.44;;;10.97;93.97
37304;BME280;23188;51.188;16.374;2023-04-30T04:49:25;100684.34;;;10.77;96.69
37304;BME280;23188;51.188;16.374;2023-04-30T04:53:28;100688.77;;;10.65;98.81
37304;BME280;23188;51.188;16.374;2023-04-30T04:57:30;100698.85;;;10.52;99.88
37304;BME280;23188;51.188;16.374;2023-04-30T05:01:33;100702.88;;;10.37;100.00
37304;BME280;23188;51.188;16.374;2023-04-30T05:05:36;100706.98;;;10.39;100.00
37304;BME280;23188;51.188;16.374;2023-04-30T05:09:39;100713.88;;;10.37;100.00
37304;BME280;23188;51.188;16.374;2023-04-30T05:13:41;100720.07;;;10.37;100.00
37304;BME280;23188;51.188;16.374;2023-04-30T05:17:44;100727.30;;;10.45;100.00
37304;BME280;23188;51.188;16.374;2023-04-30T05:21:47;100737.15;;;10.89;100.00
37304;BME280;23188;51.188;16.374;2023-04-30T05:25:52;100740.11;;;11.34;99.07
37304;BME280;23188;51.188;16.374;2023-04-30T05:29:54;100743.92;;;11.99;94.74
37304;BME280;23188;51.188;16.374;2023-04-30T05:33:57;100745.20;;;12.32;85.66
37304;BME280;23188;51.188;16.374;2023-04-30T05:38:01;100745.98;;;12.19;84.31
37304;BME280;23188;51.188;16.374;2023-04-30T05:42:04;100751.10;;;11.74;82.81
37304;BME280;23188;51.188;16.374;2023-04-30T05:46:06;100751.49;;;11.48;85.89
37304;BME280;23188;51.188;16.374;2023-04-30T05:50:08;100755.77;;;11.75;88.44
37304;BME280;23188;51.188;16.374;2023-04-30T05:54:11;100760.86;;;12.19;86.06
37304;BME280;23188;51.188;16.374;2023-04-30T05:58:15;100759.38;;;12.44;83.88
37304;BME280;23188;51.188;16.374;2023-04-30T06:02:19;100763.75;;;12.54;80.89
37304;BME280;23188;51.188;16.374;2023-04-30T06:06:22;100763.36;;;12.48;82.13
37304;BME280;23188;51.188;16.374;2023-04-30T06:10:24;100765.77;;;12.66;83.12
37304;BME280;23188;51.188;16.374;2023-04-30T06:14:28;100762.02;;;12.81;81.07
37304;BME280;23188;51.188;16.374;2023-04-30T06:18:31;100768.52;;;12.67;81.10
37304;BME280;23188;51.188;16.374;2023-04-30T06:22:33;100774.88;;;12.22;82.02
37304;BME280;23188;51.188;16.374;2023-04-30T06:26:35;100775.52;;;12.25;80.42
37304;BME280;23188;51.188;16.374;2023-04-30T06:30:39;100772.83;;;12.27;79.67
37304;BME280;23188;51.188;16.374;2023-04-30T06:34:41;100771.86;;;12.30;78.17
37304;BME280;23188;51.188;16.374;2023-04-30T06:38:44;100776.19;;;12.05;76.08
37304;BME280;23188;51.188;16.374;2023-04-30T06:42:47;100780.77;;;11.90;75.32
37304;BME280;23188;51.188;16.374;2023-04-30T06:46:49;100778.11;;;12.12;75.00
37304;BME280;23188;51.188;16.374;2023-04-30T06:50:52;100783.55;;;12.51;75.23
37304;BME280;23188;51.188;16.374;2023-04-30T06:54:53;100784.30;;;12.70;73.03
37304;BME280;23188;51.188;16.374;2023-04-30T06:58:56;100782.98;;;12.95;73.29
37304;BME280;23188;51.188;16.374;2023-04-30T07:03:02;100780.98;;;13.14;73.09
37304;BME280;23188;51.188;16.374;2023-04-30T07:07:05;100777.26;;;13.33;70.81
37304;BME280;23188;51.188;16.374;2023-04-30T07:11:08;100782.14;;;13.45;71.63
37304;BME280;23188;51.188;16.374;2023-04-30T07:15:10;100788.19;;;13.51;69.51
37304;BME280;23188;51.188;16.374;2023-04-30T07:19:13;100785.90;;;13.49;68.38
37304;BME280;23188;51.188;16.374;2023-04-30T07:23:15;100787.63;;;13.41;70.04
37304;BME280;23188;51.188;16.374;2023-04-30T07:27:17;100785.32;;;13.60;69.99
37304;BME280;23188;51.188;16.374;2023-04-30T07:31:18;100785.66;;;13.52;68.86
37304;BME280;23188;51.188;16.374;2023-04-30T07:35:20;100784.84;;;13.58;69.04
37304;BME280;23188;51.188;16.374;2023-04-30T07:39:22;100790.11;;;13.56;68.32
37304;BME280;23188;51.188;16.374;2023-04-30T07:43:24;100795.17;;;13.68;68.53
37304;BME280;23188;51.188;16.374;2023-04-30T07:47:26;100796.84;;;13.67;68.10
37304;BME280;23188;51.188;16.374;2023-04-30T07:51:28;100796.70;;;13.92;68.60
37304;BME280;23188;51.188;16.374;2023-04-30T07:55:30;100803.23;;;14.06;68.50
37304;BME280;23188;51.188;16.374;2023-04-30T07:59:33;100801.74;;;14.07;69.07
37304;BME280;23188;51.188;16.374;2023-04-30T08:03:34;100805.93;;;14.24;67.82
37304;BME280;23188;51.188;16.374;2023-04-30T08:07:36;100806.70;;;14.40;66.78
37304;BME280;23188;51.188;16.374;2023-04-30T08:11:38;100805.86;;;14.33;66.12
37304;BME280;23188;51.188;16.374;2023-04-30T08:15:40;100806.27;;;14.39;66.65
37304;BME280;23188;51.188;16.374;2023-04-30T08:19:42;100809.81;;;14.13;66.24
37304;BME280;23188;51.188;16.374;2023-04-30T08:23:44;100809.23;;;14.19;65.80
37304;BME280;23188;51.188;16.374;2023-04-30T08:27:46;100808.14;;;14.26;65.88
37304;BME280;23188;51.188;16.374;2023-04-30T08:31:48;100807.30;;;14.39;64.50
37304;BME280;23188;51.188;16.374;2023-04-30T08:35:49;100809.89;;;14.34;62.57
37304;BME280;23188;51.188;16.374;2023-04-30T08:39:51;100813.73;;;14.39;63.34
37304;BME280;23188;51.188;16.374;2023-04-30T08:43:55;100810.21;;;14.06;64.31
37304;BME280;23188;51.188;16.374;2023-04-30T08:48:00;100815.46;;;13.79;64.92
37304;BME280;23188;51.188;16.374;2023-04-30T08:52:02;100815.40;;;13.79;65.19
37304;BME280;23188;51.188;16.374;2023-04-30T08:56:04;100812.00;;;13.92;64.81
37304;BME280;23188;51.188;16.374;2023-04-30T09:00:07;100812.27;;;14.22;65.10
37304;BME280;23188;51.188;16.374;2023-04-30T09:04:10;100812.54;;;14.32;62.15
37304;BME280;23188;51.188;16.374;2023-04-30T09:08:17;100809.97;;;14.09;61.17
37304;BME280;23188;51.188;16.374;2023-04-30T09:12:19;100812.78;;;14.01;61.03
37304;BME280;23188;51.188;16.374;2023-04-30T09:16:24;100818.48;;;14.13;63.50
37304;BME280;23188;51.188;16.374;2023-04-30T09:20:26;100818.20;;;14.31;61.50
37304;BME280;23188;51.188;16.374;2023-04-30T09:24:45;100818.83;;;14.32;60.25
37304;BME280;23188;51.188;16.374;2023-04-30T09:28:54;100820.71;;;14.43;56.89
37304;BME280;23188;51.188;16.374;2023-04-30T09:32:59;100823.35;;;14.48;56.29
37304;BME280;23188;51.188;16.374;2023-04-30T09:37:01;100819.65;;;14.33;60.73
37304;BME280;23188;51.188;16.374;2023-04-30T09:41:04;100824.23;;;14.46;58.72
37304;BME280;23188;51.188;16.374;2023-04-30T09:45:09;100823.20;;;14.51;57.82
37304;BME280;23188;51.188;16.374;2023-04-30T09:49:12;100820.02;;;14.57;55.43
37304;BME280;23188;51.188;16.374;2023-04-30T09:53:14;100820.04;;;14.68;56.80
37304;BME280;23188;51.188;16.374;2023-04-30T09:57:20;100821.16;;;14.74;54.41
37304;BME280;23188;51.188;16.374;2023-04-30T10:01:25;100811.48;;;14.76;55.43
37304;BME280;23188;51.188;16.374;2023-04-30T10:05:30;100808.68;;;14.82;58.39
37304;BME280;23188;51.188;16.374;2023-04-30T10:10:06;100813.55;;;14.85;60.24
37304;BME280;23188;51.188;16.374;2023-04-30T10:14:09;100808.10;;;14.79;56.79
37304;BME280;23188;51.188;16.374;2023-04-30T10:18:27;100807.27;;;14.87;55.59
37304;BME280;23188;51.188;16.374;2023-04-30T10:22:29;100805.35;;;14.95;58.29
37304;BME280;23188;51.188;16.374;2023-04-30T10:26:34;100798.86;;;14.84;59.77
37304;BME280;23188;51.188;16.374;2023-04-30T10:30:36;100795.38;;;15.08;60.55
37304;BME280;23188;51.188;16.374;2023-04-30T10:38:49;100791.80;;;15.20;56.25
37304;BME280;23188;51.188;16.374;2023-04-30T10:42:53;100787.30;;;15.18;54.51
37304;BME280;23188;51.188;16.374;2023-04-30T10:47:00;100776.03;;;15.32;58.20
37304;BME280;23188;51.188;16.374;2023-04-30T10:51:02;100782.20;;;15.33;56.63
37304;BME280;23188;51.188;16.374;2023-04-30T10:55:06;100775.89;;;15.39;52.95
37304;BME280;23188;51.188;16.374;2023-04-30T10:59:08;100780.43;;;15.43;55.11
37304;BME280;23188;51.188;16.374;2023-04-30T11:03:10;100778.70;;;15.44;52.93
37304;BME280;23188;51.188;16.374;2023-04-30T11:07:11;100776.55;;;15.44;54.60
37304;BME280;23188;51.188;16.374;2023-04-30T11:11:18;100779.71;;;15.54;53.32
37304;BME280;23188;51.188;16.374;2023-04-30T11:15:25;100781.84;;;15.60;51.92
37304;BME280;23188;51.188;16.374;2023-04-30T11:19:27;100782.44;;;15.57;49.98
37304;BME280;23188;51.188;16.374;2023-04-30T11:23:32;100776.44;;;15.70;51.12
37304;BME280;23188;51.188;16.374;2023-04-30T11:27:43;100778.60;;;15.73;52.81
37304;BME280;23188;51.188;16.374;2023-04-30T11:31:48;100771.54;;;15.80;51.01
37304;BME280;23188;51.188;16.374;2023-04-30T11:35:50;100771.44;;;15.71;51.14
37304;BME280;23188;51.188;16.374;2023-04-30T11:39:54;100773.31;;;15.74;48.48
37304;BME280;23188;51.188;16.374;2023-04-30T11:43:57;100770.11;;;15.76;50.87
37304;BME280;23188;51.188;16.374;2023-04-30T11:47:58;100771.58;;;15.76;48.96
37304;BME280;23188;51.188;16.374;2023-04-30T11:52:01;100768.23;;;15.81;49.60
37304;BME280;23188;51.188;16.374;2023-04-30T11:56:04;100765.33;;;15.91;47.86
37304;BME280;23188;51.188;16.374;2023-04-30T12:00:27;100766.48;;;15.92;49.75
37304;BME280;23188;51.188;16.374;2023-04-30T12:04:29;100765.70;;;15.89;50.94
37304;BME280;23188;51.188;16.374;2023-04-30T12:08:31;100762.27;;;15.98;47.63
37304;BME280;23188;51.188;16.374;2023-04-30T12:12:35;100764.06;;;16.02;49.65
37304;BME280;23188;51.188;16.374;2023-04-30T12:16:56;100765.64;;;16.17;50.35
37304;BME280;23188;51.188;16.374;2023-04-30T12:21:00;100760.70;;;16.02;48.60
37304;BME280;23188;51.188;16.374;2023-04-30T12:25:07;100759.92;;;16.10;50.62
37304;BME280;23188;51.188;16.374;2023-04-30T12:29:15;100764.35;;;16.29;48.69
37304;BME280;23188;51.188;16.374;2023-04-30T12:33:18;100758.23;;;16.45;52.97
37304;BME280;23188;51.188;16.374;2023-04-30T12:37:20;100757.32;;;16.55;48.17
37304;BME280;23188;51.188;16.374;2023-04-30T12:41:22;100756.40;;;16.59;47.25
37304;BME280;23188;51.188;16.374;2023-04-30T12:45:49;100756.63;;;16.62;47.24
37304;BME280;23188;51.188;16.374;2023-04-30T12:49:52;100751.73;;;16.72;46.11
37304;BME280;23188;51.188;16.374;2023-04-30T12:53:54;100747.24;;;16.80;47.74
37304;BME280;23188;51.188;16.374;2023-04-30T12:58:09;100737.96;;;16.79;46.10
37304;BME280;23188;51.188;16.374;2023-04-30T13:02:13;100749.95;;;16.77;49.32
37304;BME280;23188;51.188;16.374;2023-04-30T13:06:15;100747.04;;;16.90;45.94
37304;BME280;23188;51.188;16.374;2023-04-30T13:10:17;100738.75;;;16.78;47.06
37304;BME280;23188;51.188;16.374;2023-04-30T13:14:18;100735.23;;;16.91;47.85
37304;BME280;23188;51.188;16.374;2023-04-30T13:18:20;100734.91;;;16.96;45.94
37304;BME280;23188;51.188;16.374;2023-04-30T13:22:22;100727.69;;;17.08;46.59
37304;BME280;23188;51.188;16.374;2023-04-30T13:26:26;100725.47;;;17.14;48.47
37304;BME280;23188;51.188;16.374;2023-04-30T13:30:28;100724.19;;;17.24;44.74
37304;BME280;23188;51.188;16.374;2023-04-30T13:34:30;100719.90;;;17.28;45.92
37304;BME280;23188;51.188;16.374;2023-04-30T13:38:31;100718.44;;;17.28;45.07
37304;BME280;23188;51.188;16.374;2023-04-30T13:42:36;100722.27;;;17.17;47.27
37304;BME280;23188;51.188;16.374;2023-04-30T13:46:38;100720.92;;;17.02;44.57
37304;BME280;23188;51.188;16.374;2023-04-30T13:50:40;100723.55;;;16.79;44.72
37304;BME280;23188;51.188;16.374;2023-04-30T13:54:41;100721.59;;;16.86;45.20
37304;BME280;23188;51.188;16.374;2023-04-30T13:58:44;100720.11;;;16.85;47.24
37304;BME280;23188;51.188;16.374;2023-04-30T14:02:46;100719.52;;;17.00;46.93
37304;BME280;23188;51.188;16.374;2023-04-30T14:06:48;100718.12;;;17.10;47.37
37304;BME280;23188;51.188;16.374;2023-04-30T14:10:51;100704.88;;;17.20;46.95
37304;BME280;23188;51.188;16.374;2023-04-30T14:14:53;100706.04;;;17.25;47.09
37304;BME280;23188;51.188;16.374;2023-04-30T14:18:54;100700.14;;;17.32;46.21
37304;BME280;23188;51.188;16.374;2023-04-30T14:22:56;100701.52;;;17.25;44.48
37304;BME280;23188;51.188;16.374;2023-04-30T14:26:58;100698.73;;;17.39;46.37
37304;BME280;23188;51.188;16.374;2023-04-30T14:31:00;100707.14;;;17.21;46.08
37304;BME280;23188;51.188;16.374;2023-04-30T14:35:02;100703.14;;;17.04;45.61
37304;BME280;23188;51.188;16.374;2023-04-30T14:39:05;100699.13;;;16.94;46.40
37304;BME280;23188;51.188;16.374;2023-04-30T14:43:08;100702.44;;;16.84;45.14
37304;BME280;23188;51.188;16.374;2023-04-30T14:47:10;100695.66;;;16.89;43.99
37304;BME280;23188;51.188;16.374;2023-04-30T14:51:12;100686.05;;;16.92;42.30
37304;BME280;23188;51.188;16.374;2023-04-30T14:55:14;100683.39;;;16.97;44.66
37304;BME280;23188;51.188;16.374;2023-04-30T14:59:16;100688.70;;;16.91;45.06
37304;BME280;23188;51.188;16.374;2023-04-30T15:03:18;100692.21;;;17.07;44.93
37304;BME280;23188;51.188;16.374;2023-04-30T15:07:20;100689.63;;;17.09;45.42
37304;BME280;23188;51.188;16.374;2023-04-30T15:11:22;100688.98;;;17.03;45.11
37304;BME280;23188;51.188;16.374;2023-04-30T15:15:25;100685.53;;;16.99;42.26
37304;BME280;23188;51.188;16.374;2023-04-30T15:19:29;100682.69;;;17.24;41.83
37304;BME280;23188;51.188;16.374;2023-04-30T15:23:31;100681.65;;;17.46;43.44
37304;BME280;23188;51.188;16.374;2023-04-30T15:27:34;100677.40;;;17.58;45.96
37304;BME280;23188;51.188;16.374;2023-04-30T15:31:37;100677.96;;;17.69;45.45
37304;BME280;23188;51.188;16.374;2023-04-30T15:35:39;100680.45;;;17.88;46.31
37304;BME280;23188;51.188;16.374;2023-04-30T15:39:40;100673.67;;;17.98;44.30
37304;BME280;23188;51.188;16.374;2023-04-30T15:43:41;100674.83;;;18.04;42.18
37304;BME280;23188;51.188;16.374;2023-04-30T15:47:44;100679.83;;;18.04;43.35
37304;BME280;23188;51.188;16.374;2023-04-30T15:51:45;100680.21;;;17.89;44.69
37304;BME280;23188;51.188;16.374;2023-04-30T15:55:47;100679.23;;;17.73;44.51
37304;BME280;23188;51.188;16.374;2023-04-30T15:59:50;100677.90;;;17.78;43.13
37304;BME280;23188;51.188;16.374;2023-04-30T16:03:51;100679.22;;;17.71;43.25
37304;BME280;23188;51.188;16.374;2023-04-30T16:07:57;100678.84;;;17.61;41.95
37304;BME280;23188;51.188;16.374;2023-04-30T16:11:59;100677.09;;;17.43;44.36
37304;BME280;23188;51.188;16.374;2023-04-30T16:16:02;100673.65;;;17.38;45.92
37304;BME280;23188;51.188;16.374;2023-04-30T16:20:04;100672.40;;;17.35;45.42
37304;BME280;23188;51.188;16.374;2023-04-30T16:24:07;100667.33;;;17.35;46.83
37304;BME280;23188;51.188;16.374;2023-04-30T16:28:09;100663.77;;;17.38;46.35
37304;BME280;23188;51.188;16.374;2023-04-30T16:32:11;100662.81;;;17.36;46.82
37304;BME280;23188;51.188;16.374;2023-04-30T16:36:13;100663.17;;;17.25;45.20
37304;BME280;23188;51.188;16.374;2023-04-30T16:40:15;100664.43;;;17.15;47.03
37304;BME280;23188;51.188;16.374;2023-04-30T16:44:17;100661.11;;;17.04;46.86
37304;BME280;23188;51.188;16.374;2023-04-30T16:48:18;100657.84;;;16.95;46.31
37304;BME280;23188;51.188;16.374;2023-04-30T16:52:20;100660.77;;;16.91;49.19
37304;BME280;23188;51.188;16.374;2023-04-30T16:56:22;100660.92;;;16.86;49.85
37304;BME280;23188;51.188;16.374;2023-04-30T17:00:23;100658.73;;;16.83;50.19
37304;BME280;23188;51.188;16.374;2023-04-30T17:04:25;100662.80;;;16.78;50.51
37304;BME280;23188;51.188;16.374;2023-04-30T17:08:27;100658.48;;;16.69;50.56
37304;BME280;23188;51.188;16.374;2023-04-30T17:12:30;100665.94;;;16.57;50.75
37304;BME280;23188;51.188;16.374;2023-04-30T17:16:33;100671.23;;;16.39;50.61
37304;BME280;23188;51.188;16.374;2023-04-30T17:20:34;100671.81;;;16.14;51.54
37304;BME280;23188;51.188;16.374;2023-04-30T17:24:52;100674.36;;;15.90;53.20
37304;BME280;23188;51.188;16.374;2023-04-30T17:29:31;100675.67;;;15.56;53.15
37304;BME280;23188;51.188;16.374;2023-04-30T17:33:33;100673.21;;;15.33;52.81
37304;BME280;23188;51.188;16.374;2023-04-30T17:37:35;100677.83;;;15.09;52.67
37304;BME280;23188;51.188;16.374;2023-04-30T17:41:38;100679.11;;;14.87;53.63
37304;BME280;23188;51.188;16.374;2023-04-30T17:45:41;100681.02;;;14.64;54.28
37304;BME280;23188;51.188;16.374;2023-04-30T17:49:44;100683.64;;;14.41;54.48
37304;BME280;23188;51.188;16.374;2023-04-30T17:53:46;100683.11;;;14.26;55.03
37304;BME280;23188;51.188;16.374;2023-04-30T17:57:49;100682.13;;;14.08;55.50
37304;BME280;23188;51.188;16.374;2023-04-30T18:01:51;100685.53;;;13.95;55.78
37304;BME280;23188;51.188;16.374;2023-04-30T18:05:53;100688.20;;;13.81;56.01
37304;BME280;23188;51.188;16.374;2023-04-30T18:09:56;100692.88;;;13.66;56.36
37304;BME280;23188;51.188;16.374;2023-04-30T18:13:59;100692.24;;;13.51;56.57
37304;BME280;23188;51.188;16.374;2023-04-30T18:18:01;100693.36;;;13.35;56.36
37304;BME280;23188;51.188;16.374;2023-04-30T18:22:03;100696.86;;;13.19;56.11
37304;BME280;23188;51.188;16.374;2023-04-30T18:26:05;100703.38;;;13.04;55.98
37304;BME280;23188;51.188;16.374;2023-04-30T18:30:08;100707.09;;;12.91;56.17
37304;BME280;23188;51.188;16.374;2023-04-30T18:34:10;100709.26;;;12.80;56.09
37304;BME280;23188;51.188;16.374;2023-04-30T18:38:13;100711.69;;;12.70;56.24
37304;BME280;23188;51.188;16.374;2023-04-30T18:42:15;100719.41;;;12.63;56.20
37304;BME280;23188;51.188;16.374;2023-04-30T18:46:16;100725.05;;;12.57;55.91
37304;BME280;23188;51.188;16.374;2023-04-30T18:50:18;100725.61;;;12.52;55.91
37304;BME280;23188;51.188;16.374;2023-04-30T18:54:22;100733.23;;;12.46;56.10
37304;BME280;23188;51.188;16.374;2023-04-30T18:58:24;100734.69;;;12.39;56.29
37304;BME280;23188;51.188;16.374;2023-04-30T19:02:26;100737.19;;;12.33;56.56
37304;BME280;23188;51.188;16.374;2023-04-30T19:06:29;100741.77;;;12.25;56.93
37304;BME280;23188;51.188;16.374;2023-04-30T19:10:34;100745.23;;;12.12;57.37
37304;BME280;23188;51.188;16.374;2023-04-30T19:14:36;100752.52;;;12.03;57.32
37304;BME280;23188;51.188;16.374;2023-04-30T19:18:38;100751.75;;;11.95;57.87
37304;BME280;23188;51.188;16.374;2023-04-30T19:22:40;100754.13;;;11.83;60.22
37304;BME280;23188;51.188;16.374;2023-04-30T19:26:42;100756.05;;;11.63;62.90
37304;BME280;23188;51.188;16.374;2023-04-30T19:30:49;100755.17;;;11.37;64.64
37304;BME280;23188;51.188;16.374;2023-04-30T19:34:51;100762.24;;;11.10;67.06
37304;BME280;23188;51.188;16.374;2023-04-30T19:38:54;100767.98;;;10.76;70.45
37304;BME280;23188;51.188;16.374;2023-04-30T19:42:55;100767.47;;;10.51;69.83
37304;BME280;23188;51.188;16.374;2023-04-30T19:46:57;100777.02;;;10.32;70.08
37304;BME280;23188;51.188;16.374;2023-04-30T19:51:02;100778.98;;;10.14;70.41
37304;BME280;23188;51.188;16.374;2023-04-30T19:55:04;100784.87;;;9.99;71.06
37304;BME280;23188;51.188;16.374;2023-04-30T19:59:07;100788.98;;;9.86;71.67
37304;BME280;23188;51.188;16.374;2023-04-30T20:03:10;100786.63;;;9.76;72.81
37304;BME280;23188;51.188;16.374;2023-04-30T20:07:13;100788.67;;;9.72;74.36
37304;BME280;23188;51.188;16.374;2023-04-30T20:11:14;100792.30;;;9.66;74.04
37304;BME280;23188;51.188;16.374;2023-04-30T20:15:17;100789.90;;;9.54;74.37
37304;BME280;23188;51.188;16.374;2023-04-30T20:19:19;100791.42;;;9.40;74.63
37304;BME280;23188;51.188;16.374;2023-04-30T20:23:25;100795.67;;;9.27;75.76
37304;BME280;23188;51.188;16.374;2023-04-30T20:27:27;100794.60;;;9.11;75.70
37304;BME280;23188;51.188;16.374;2023-04-30T20:31:28;100802.45;;;8.97;77.05
37304;BME280;23188;51.188;16.374;2023-04-30T20:35:31;100805.73;;;8.87;77.53
37304;BME280;23188;51.188;16.374;2023-04-30T20:39:33;100807.74;;;8.81;77.38
37304;BME280;23188;51.188;16.374;2023-04-30T20:43:35;100807.89;;;8.73;77.03
37304;BME280;23188;51.188;16.374;2023-04-30T20:47:40;100807.73;;;8.65;77.92
37304;BME280;23188;51.188;16.374;2023-04-30T20:51:42;100807.41;;;8.50;78.96
37304;BME280;23188;51.188;16.374;2023-04-30T20:55:44;100810.08;;;8.41;79.16
37304;BME280;23188;51.188;16.374;2023-04-30T20:59:46;100806.90;;;8.41;79.71
37304;BME280;23188;51.188;16.374;2023-04-30T21:03:48;100805.16;;;8.43;78.78
37304;BME280;23188;51.188;16.374;2023-04-30T21:07:51;100811.37;;;8.43;79.02
37304;BME280;23188;51.188;16.374;2023-04-30T21:11:52;100812.50;;;8.31;80.60